sensor_id;sensor_type;location;lat;lon;timestamp;P1;durP1;ratioP1;P2;durP2;ratioP2
47455;SDS011;33202;48.512;-2.780;2022-12-07T00:01:17;34.53;;;20.23;;
47455;SDS011;33202;48.512;-2.780;2022-12-07T00:03:44;31.92;;;19.38;;
47455;SDS011;33202;48.512;-2.780;2022-12-07T00:06:11;33.47;;;20.58;;
47455;SDS011;33202;48.512;-2.780;2022-12-07T00:08:37;35.92;;;20.05;;
47455;SDS011;33202;48.512;-2.780;2022-12-07T00:11:13;34.65;;;20.90;;
47455;SDS011;33202;48.512;-2.780;2022-12-07T00:13:40;35.28;;;20.63;;
47455;SDS011;33202;48.512;-2.780;2022-12-07T00:16:07;33.50;;;19.60;;
47455;SDS011;33202;48.512;-2.780;2022-12-07T00:18:33;33.42;;;18.92;;
47455;SDS011;33202;48.512;-2.780;2022-12-07T00:21:00;33.20;;;20.05;;
47455;SDS011;33202;48.512;-2.780;2022-12-07T00:23:27;33.80;;;19.58;;
47455;SDS011;33202;48.512;-2.780;2022-12-07T00:25:53;31.83;;;19.73;;
47455;SDS011;33202;48.512;-2.780;2022-12-07T00:28:19;31.27;;;19.02;;
47455;SDS011;33202;48.512;-2.780;2022-12-07T00:30:45;33.72;;;20.10;;
47455;SDS011;33202;48.512;-2.780;2022-12-07T00:33:11;33.50;;;19.83;;
47455;SDS011;33202;48.512;-2.780;2022-12-07T00:35:37;31.95;;;18.73;;
47455;SDS011;33202;48.512;-2.780;2022-12-07T00:38:03;31.38;;;18.75;;
47455;SDS011;33202;48.512;-2.780;2022-12-07T00:40:29;32.33;;;18.70;;
47455;SDS011;33202;48.512;-2.780;2022-12-07T00:42:55;33.63;;;18.58;;
47455;SDS011;33202;48.512;-2.780;2022-12-07T00:45:21;30.60;;;18.20;;
47455;SDS011;33202;48.512;-2.780;2022-12-07T00:47:47;28.90;;;16.98;;
47455;SDS011;33202;48.512;-2.780;2022-12-07T00:50:13;28.85;;;17.52;;
47455;SDS011;33202;48.512;-2.780;2022-12-07T00:52:39;30.55;;;18.00;;
47455;SDS011;33202;48.512;-2.780;2022-12-07T00:55:05;26.98;;;16.17;;
47455;SDS011;33202;48.512;-2.780;2022-12-07T00:57:31;26.15;;;15.95;;
47455;SDS011;33202;48.512;-2.780;2022-12-07T00:59:57;24.90;;;15.50;;
47455;SDS011;33202;48.512;-2.780;2022-12-07T01:02:25;25.35;;;15.15;;
47455;SDS011;33202;48.512;-2.780;2022-12-07T01:04:51;23.10;;;14.15;;
47455;SDS011;33202;48.512;-2.780;2022-12-07T01:07:17;29.02;;;16.10;;
47455;SDS011;33202;48.512;-2.780;2022-12-07T01:09:43;26.00;;;15.45;;
47455;SDS011;33202;48.512;-2.780;2022-12-07T01:12:09;24.17;;;14.57;;
47455;SDS011;33202;48.512;-2.780;2022-12-07T01:14:35;30.15;;;16.15;;
47455;SDS011;33202;48.512;-2.780;2022-12-07T01:17:01;25.67;;;15.10;;
47455;SDS011;33202;48.512;-2.780;2022-12-07T01:19:27;29.60;;;17.00;;
47455;SDS011;33202;48.512;-2.780;2022-12-07T01:21:53;28.25;;;17.70;;
47455;SDS011;33202;48.512;-2.780;2022-12-07T01:24:19;27.30;;;16.88;;
47455;SDS011;33202;48.512;-2.780;2022-12-07T01:26:45;33.00;;;18.52;;
47455;SDS011;33202;48.512;-2.780;2022-12-07T01:29:11;28.30;;;17.63;;
47455;SDS011;33202;48.512;-2.780;2022-12-07T01:31:37;27.77;;;16.65;;
47455;SDS011;33202;48.512;-2.780;2022-12-07T01:34:03;29.52;;;16.08;;
47455;SDS011;33202;48.512;-2.780;2022-12-07T01:36:30;27.40;;;15.52;;
47455;SDS011;33202;48.512;-2.780;2022-12-07T01:38:58;29.17;;;16.15;;
47455;SDS011;33202;48.512;-2.780;2022-12-07T01:41:25;26.20;;;15.38;;
47455;SDS011;33202;48.512;-2.780;2022-12-07T01:44:08;25.00;;;14.52;;
47455;SDS011;33202;48.512;-2.780;2022-12-07T01:46:35;28.10;;;15.90;;
47455;SDS011;33202;48.512;-2.780;2022-12-07T01:49:01;25.27;;;14.70;;
47455;SDS011;33202;48.512;-2.780;2022-12-07T01:51:28;28.60;;;15.73;;
47455;SDS011;33202;48.512;-2.780;2022-12-07T01:53:54;25.77;;;14.95;;
47455;SDS011;33202;48.512;-2.780;2022-12-07T01:56:22;25.13;;;14.95;;
47455;SDS011;33202;48.512;-2.780;2022-12-07T01:58:49;29.40;;;17.15;;
47455;SDS011;33202;48.512;-2.780;2022-12-07T02:01:16;27.33;;;15.57;;
47455;SDS011;33202;48.512;-2.780;2022-12-07T02:03:43;26.85;;;15.55;;
47455;SDS011;33202;48.512;-2.780;2022-12-07T02:06:11;25.17;;;15.02;;
47455;SDS011;33202;48.512;-2.780;2022-12-07T02:08:37;25.23;;;15.07;;
47455;SDS011;33202;48.512;-2.780;2022-12-07T02:11:04;26.30;;;15.25;;
47455;SDS011;33202;48.512;-2.780;2022-12-07T02:13:32;24.30;;;14.93;;
47455;SDS011;33202;48.512;-2.780;2022-12-07T02:16:06;27.92;;;15.27;;
47455;SDS011;33202;48.512;-2.780;2022-12-07T02:31:12;26.02;;;14.95;;
47455;SDS011;33202;48.512;-2.780;2022-12-07T02:34:02;23.00;;;15.05;;
47455;SDS011;33202;48.512;-2.780;2022-12-07T02:36:30;23.55;;;13.82;;
47455;SDS011;33202;48.512;-2.780;2022-12-07T02:41:33;26.00;;;14.27;;
47455;SDS011;33202;48.512;-2.780;2022-12-07T02:44:02;24.80;;;14.48;;
47455;SDS011;33202;48.512;-2.780;2022-12-07T02:46:34;24.90;;;14.38;;
47455;SDS011;33202;48.512;-2.780;2022-12-07T02:49:02;22.02;;;13.32;;
47455;SDS011;33202;48.512;-2.780;2022-12-07T02:51:32;23.83;;;13.13;;
47455;SDS011;33202;48.512;-2.780;2022-12-07T02:53:58;21.77;;;12.60;;
47455;SDS011;33202;48.512;-2.780;2022-12-07T02:56:30;24.00;;;13.52;;
47455;SDS011;33202;48.512;-2.780;2022-12-07T03:04:08;24.02;;;14.45;;
47455;SDS011;33202;48.512;-2.780;2022-12-07T03:06:42;23.10;;;13.55;;
47455;SDS011;33202;48.512;-2.780;2022-12-07T03:09:13;24.60;;;15.00;;
47455;SDS011;33202;48.512;-2.780;2022-12-07T03:14:13;23.75;;;14.80;;
47455;SDS011;33202;48.512;-2.780;2022-12-07T03:16:41;22.25;;;12.90;;
47455;SDS011;33202;48.512;-2.780;2022-12-07T03:19:15;21.75;;;13.73;;
47455;SDS011;33202;48.512;-2.780;2022-12-07T03:21:47;25.45;;;13.93;;
47455;SDS011;33202;48.512;-2.780;2022-12-07T03:24:15;26.35;;;14.23;;
47455;SDS011;33202;48.512;-2.780;2022-12-07T03:26:44;28.77;;;15.48;;
47455;SDS011;33202;48.512;-2.780;2022-12-07T03:29:22;24.73;;;14.05;;
47455;SDS011;33202;48.512;-2.780;2022-12-07T03:31:51;27.25;;;14.73;;
47455;SDS011;33202;48.512;-2.780;2022-12-07T03:36:55;32.92;;;16.52;;
47455;SDS011;33202;48.512;-2.780;2022-12-07T03:39:24;38.50;;;17.38;;
47455;SDS011;33202;48.512;-2.780;2022-12-07T03:41:52;42.55;;;18.65;;
47455;SDS011;33202;48.512;-2.780;2022-12-07T03:44:19;68.37;;;25.53;;
47455;SDS011;33202;48.512;-2.780;2022-12-07T03:49:14;39.35;;;18.70;;
47455;SDS011;33202;48.512;-2.780;2022-12-07T03:57:01;40.13;;;18.25;;
47455;SDS011;33202;48.512;-2.780;2022-12-07T03:59:28;46.10;;;21.63;;
47455;SDS011;33202;48.512;-2.780;2022-12-07T04:01:56;51.63;;;23.52;;
47455;SDS011;33202;48.512;-2.780;2022-12-07T04:04:23;37.65;;;18.88;;
47455;SDS011;33202;48.512;-2.780;2022-12-07T04:06:50;37.67;;;17.98;;
47455;SDS011;33202;48.512;-2.780;2022-12-07T04:09:16;30.48;;;15.45;;
47455;SDS011;33202;48.512;-2.780;2022-12-07T04:11:43;24.58;;;13.52;;
47455;SDS011;33202;48.512;-2.780;2022-12-07T04:14:09;26.05;;;14.50;;
47455;SDS011;33202;48.512;-2.780;2022-12-07T04:19:11;23.25;;;13.38;;
47455;SDS011;33202;48.512;-2.780;2022-12-07T04:21:37;32.50;;;16.23;;
47455;SDS011;33202;48.512;-2.780;2022-12-07T04:24:03;34.58;;;17.45;;
47455;SDS011;33202;48.512;-2.780;2022-12-07T04:26:30;29.63;;;16.80;;
47455;SDS011;33202;48.512;-2.780;2022-12-07T04:28:56;28.27;;;16.08;;
47455;SDS011;33202;48.512;-2.780;2022-12-07T04:31:22;27.75;;;15.00;;
47455;SDS011;33202;48.512;-2.780;2022-12-07T04:33:48;26.63;;;15.15;;
47455;SDS011;33202;48.512;-2.780;2022-12-07T04:36:14;24.75;;;14.43;;
47455;SDS011;33202;48.512;-2.780;2022-12-07T04:38:40;21.10;;;12.70;;
47455;SDS011;33202;48.512;-2.780;2022-12-07T04:41:06;23.35;;;14.27;;
47455;SDS011;33202;48.512;-2.780;2022-12-07T04:43:32;20.05;;;12.55;;
47455;SDS011;33202;48.512;-2.780;2022-12-07T04:45:58;24.25;;;13.00;;
47455;SDS011;33202;48.512;-2.780;2022-12-07T04:48:24;22.88;;;13.75;;
47455;SDS011;33202;48.512;-2.780;2022-12-07T04:50:50;22.63;;;13.30;;
47455;SDS011;33202;48.512;-2.780;2022-12-07T04:53:17;20.65;;;13.02;;
47455;SDS011;33202;48.512;-2.780;2022-12-07T04:55:43;21.52;;;13.43;;
47455;SDS011;33202;48.512;-2.780;2022-12-07T04:58:10;22.85;;;13.25;;
47455;SDS011;33202;48.512;-2.780;2022-12-07T05:00:36;20.88;;;12.38;;
47455;SDS011;33202;48.512;-2.780;2022-12-07T05:03:02;22.42;;;12.68;;
47455;SDS011;33202;48.512;-2.780;2022-12-07T05:05:28;20.08;;;12.80;;
47455;SDS011;33202;48.512;-2.780;2022-12-07T05:07:54;24.33;;;13.07;;
47455;SDS011;33202;48.512;-2.780;2022-12-07T05:10:20;21.25;;;12.27;;
47455;SDS011;33202;48.512;-2.780;2022-12-07T05:12:46;22.45;;;13.38;;
47455;SDS011;33202;48.512;-2.780;2022-12-07T05:15:12;21.30;;;12.07;;
47455;SDS011;33202;48.512;-2.780;2022-12-07T05:17:38;21.75;;;12.90;;
47455;SDS011;33202;48.512;-2.780;2022-12-07T05:20:05;19.20;;;11.45;;
47455;SDS011;33202;48.512;-2.780;2022-12-07T05:22:31;21.40;;;12.40;;
47455;SDS011;33202;48.512;-2.780;2022-12-07T05:24:57;20.23;;;12.43;;
47455;SDS011;33202;48.512;-2.780;2022-12-07T05:27:23;20.55;;;11.90;;
47455;SDS011;33202;48.512;-2.780;2022-12-07T05:29:49;21.00;;;12.80;;
47455;SDS011;33202;48.512;-2.780;2022-12-07T05:32:16;23.38;;;13.20;;
47455;SDS011;33202;48.512;-2.780;2022-12-07T05:34:42;20.33;;;12.35;;
47455;SDS011;33202;48.512;-2.780;2022-12-07T05:37:08;22.92;;;13.15;;
47455;SDS011;33202;48.512;-2.780;2022-12-07T05:39:34;22.02;;;12.90;;
47455;SDS011;33202;48.512;-2.780;2022-12-07T05:42:00;22.95;;;12.57;;
47455;SDS011;33202;48.512;-2.780;2022-12-07T05:44:39;22.55;;;12.65;;
47455;SDS011;33202;48.512;-2.780;2022-12-07T05:47:05;19.05;;;11.68;;
47455;SDS011;33202;48.512;-2.780;2022-12-07T05:49:31;20.48;;;11.88;;
47455;SDS011;33202;48.512;-2.780;2022-12-07T05:51:57;23.35;;;12.63;;
47455;SDS011;33202;48.512;-2.780;2022-12-07T05:54:23;20.48;;;11.95;;
47455;SDS011;33202;48.512;-2.780;2022-12-07T05:56:50;21.83;;;13.45;;
47455;SDS011;33202;48.512;-2.780;2022-12-07T05:59:16;22.65;;;13.10;;
47455;SDS011;33202;48.512;-2.780;2022-12-07T06:01:55;23.63;;;13.25;;
47455;SDS011;33202;48.512;-2.780;2022-12-07T06:04:21;23.48;;;13.32;;
47455;SDS011;33202;48.512;-2.780;2022-12-07T06:06:47;22.38;;;13.27;;
47455;SDS011;33202;48.512;-2.780;2022-12-07T06:09:14;21.88;;;12.55;;
47455;SDS011;33202;48.512;-2.780;2022-12-07T06:11:40;21.13;;;12.55;;
47455;SDS011;33202;48.512;-2.780;2022-12-07T06:14:25;22.45;;;12.90;;
47455;SDS011;33202;48.512;-2.780;2022-12-07T06:16:51;19.60;;;12.55;;
47455;SDS011;33202;48.512;-2.780;2022-12-07T06:19:17;21.30;;;12.85;;
47455;SDS011;33202;48.512;-2.780;2022-12-07T06:21:43;19.15;;;12.25;;
47455;SDS011;33202;48.512;-2.780;2022-12-07T06:24:10;22.02;;;12.35;;
47455;SDS011;33202;48.512;-2.780;2022-12-07T06:26:37;20.30;;;12.55;;
47455;SDS011;33202;48.512;-2.780;2022-12-07T06:29:03;22.98;;;13.77;;
47455;SDS011;33202;48.512;-2.780;2022-12-07T06:31:29;21.75;;;13.00;;
47455;SDS011;33202;48.512;-2.780;2022-12-07T06:33:59;23.65;;;12.57;;
47455;SDS011;33202;48.512;-2.780;2022-12-07T06:36:26;18.52;;;11.75;;
47455;SDS011;33202;48.512;-2.780;2022-12-07T06:38:52;21.50;;;12.25;;
47455;SDS011;33202;48.512;-2.780;2022-12-07T06:41:18;20.65;;;12.57;;
47455;SDS011;33202;48.512;-2.780;2022-12-07T06:43:44;19.55;;;12.30;;
47455;SDS011;33202;48.512;-2.780;2022-12-07T06:46:10;20.58;;;12.02;;
47455;SDS011;33202;48.512;-2.780;2022-12-07T06:48:36;21.67;;;12.73;;
47455;SDS011;33202;48.512;-2.780;2022-12-07T06:51:02;21.02;;;12.07;;
47455;SDS011;33202;48.512;-2.780;2022-12-07T06:53:28;22.45;;;13.20;;
47455;SDS011;33202;48.512;-2.780;2022-12-07T06:55:54;20.23;;;11.90;;
47455;SDS011;33202;48.512;-2.780;2022-12-07T06:58:20;19.40;;;11.68;;
47455;SDS011;33202;48.512;-2.780;2022-12-07T07:00:47;19.45;;;12.30;;
47455;SDS011;33202;48.512;-2.780;2022-12-07T07:03:14;19.13;;;11.82;;
47455;SDS011;33202;48.512;-2.780;2022-12-07T07:05:40;19.15;;;11.70;;
47455;SDS011;33202;48.512;-2.780;2022-12-07T07:08:06;22.42;;;12.15;;
47455;SDS011;33202;48.512;-2.780;2022-12-07T07:10:32;21.17;;;12.38;;
47455;SDS011;33202;48.512;-2.780;2022-12-07T07:12:58;19.25;;;11.65;;
47455;SDS011;33202;48.512;-2.780;2022-12-07T07:15:24;19.60;;;11.85;;
47455;SDS011;33202;48.512;-2.780;2022-12-07T07:17:50;18.63;;;11.50;;
47455;SDS011;33202;48.512;-2.780;2022-12-07T07:20:16;19.80;;;11.77;;
47455;SDS011;33202;48.512;-2.780;2022-12-07T07:22:42;20.20;;;11.68;;
47455;SDS011;33202;48.512;-2.780;2022-12-07T07:25:08;23.73;;;12.02;;
47455;SDS011;33202;48.512;-2.780;2022-12-07T07:27:34;20.13;;;12.70;;
47455;SDS011;33202;48.512;-2.780;2022-12-07T07:30:00;23.52;;;13.18;;
47455;SDS011;33202;48.512;-2.780;2022-12-07T07:32:26;24.30;;;12.93;;
47455;SDS011;33202;48.512;-2.780;2022-12-07T07:34:53;21.98;;;13.63;;
47455;SDS011;33202;48.512;-2.780;2022-12-07T07:37:19;20.88;;;12.20;;
47455;SDS011;33202;48.512;-2.780;2022-12-07T07:39:44;22.30;;;13.65;;
47455;SDS011;33202;48.512;-2.780;2022-12-07T07:42:10;24.27;;;13.35;;
47455;SDS011;33202;48.512;-2.780;2022-12-07T07:44:36;21.55;;;13.40;;
47455;SDS011;33202;48.512;-2.780;2022-12-07T07:47:02;26.70;;;15.60;;
47455;SDS011;33202;48.512;-2.780;2022-12-07T07:49:28;25.70;;;16.48;;
47455;SDS011;33202;48.512;-2.780;2022-12-07T07:51:54;25.38;;;16.73;;
47455;SDS011;33202;48.512;-2.780;2022-12-07T07:54:20;29.05;;;17.73;;
47455;SDS011;33202;48.512;-2.780;2022-12-07T07:56:46;28.73;;;16.75;;
47455;SDS011;33202;48.512;-2.780;2022-12-07T07:59:12;27.40;;;16.27;;
47455;SDS011;33202;48.512;-2.780;2022-12-07T08:01:39;25.40;;;16.40;;
47455;SDS011;33202;48.512;-2.780;2022-12-07T08:04:05;28.90;;;17.25;;
47455;SDS011;33202;48.512;-2.780;2022-12-07T08:06:31;27.75;;;17.65;;
47455;SDS011;33202;48.512;-2.780;2022-12-07T08:08:57;28.30;;;17.52;;
47455;SDS011;33202;48.512;-2.780;2022-12-07T08:11:24;28.70;;;15.77;;
47455;SDS011;33202;48.512;-2.780;2022-12-07T08:13:50;23.33;;;15.00;;
47455;SDS011;33202;48.512;-2.780;2022-12-07T08:16:16;22.63;;;13.60;;
47455;SDS011;33202;48.512;-2.780;2022-12-07T08:18:42;24.20;;;14.27;;
47455;SDS011;33202;48.512;-2.780;2022-12-07T08:21:12;22.02;;;14.27;;
47455;SDS011;33202;48.512;-2.780;2022-12-07T08:23:39;22.77;;;13.88;;
47455;SDS011;33202;48.512;-2.780;2022-12-07T08:26:15;21.92;;;14.20;;
47455;SDS011;33202;48.512;-2.780;2022-12-07T08:28:41;22.73;;;14.35;;
47455;SDS011;33202;48.512;-2.780;2022-12-07T08:31:09;23.52;;;14.80;;
47455;SDS011;33202;48.512;-2.780;2022-12-07T08:33:36;22.52;;;14.52;;
47455;SDS011;33202;48.512;-2.780;2022-12-07T08:36:03;21.70;;;15.02;;
47455;SDS011;33202;48.512;-2.780;2022-12-07T08:38:30;24.52;;;14.98;;
47455;SDS011;33202;48.512;-2.780;2022-12-07T08:40:56;24.98;;;14.25;;
47455;SDS011;33202;48.512;-2.780;2022-12-07T08:43:23;21.57;;;12.83;;
47455;SDS011;33202;48.512;-2.780;2022-12-07T08:45:51;21.58;;;12.80;;
47455;SDS011;33202;48.512;-2.780;2022-12-07T08:48:18;22.40;;;13.45;;
47455;SDS011;33202;48.512;-2.780;2022-12-07T08:50:47;21.23;;;12.85;;
47455;SDS011;33202;48.512;-2.780;2022-12-07T08:53:13;26.80;;;14.50;;
47455;SDS011;33202;48.512;-2.780;2022-12-07T08:55:39;26.25;;;15.27;;
47455;SDS011;33202;48.512;-2.780;2022-12-07T08:58:05;22.98;;;14.20;;
47455;SDS011;33202;48.512;-2.780;2022-12-07T09:00:31;24.23;;;14.70;;
47455;SDS011;33202;48.512;-2.780;2022-12-07T09:02:57;26.05;;;16.23;;
47455;SDS011;33202;48.512;-2.780;2022-12-07T09:05:23;24.17;;;15.38;;
47455;SDS011;33202;48.512;-2.780;2022-12-07T09:07:51;27.55;;;16.00;;
47455;SDS011;33202;48.512;-2.780;2022-12-07T09:10:20;24.77;;;15.52;;
47455;SDS011;33202;48.512;-2.780;2022-12-07T09:12:46;26.10;;;16.10;;
47455;SDS011;33202;48.512;-2.780;2022-12-07T09:15:12;27.92;;;16.73;;
47455;SDS011;33202;48.512;-2.780;2022-12-07T09:17:38;30.60;;;17.30;;
47455;SDS011;33202;48.512;-2.780;2022-12-07T09:20:04;31.52;;;18.05;;
47455;SDS011;33202;48.512;-2.780;2022-12-07T09:22:31;33.13;;;20.00;;
47455;SDS011;33202;48.512;-2.780;2022-12-07T09:24:57;40.05;;;25.63;;
47455;SDS011;33202;48.512;-2.780;2022-12-07T09:27:23;42.35;;;28.60;;
47455;SDS011;33202;48.512;-2.780;2022-12-07T09:29:49;46.78;;;31.15;;
47455;SDS011;33202;48.512;-2.780;2022-12-07T09:32:15;49.13;;;31.50;;
47455;SDS011;33202;48.512;-2.780;2022-12-07T09:34:41;48.22;;;31.02;;
47455;SDS011;33202;48.512;-2.780;2022-12-07T09:37:08;104.15;;;51.13;;
47455;SDS011;33202;48.512;-2.780;2022-12-07T09:39:34;97.78;;;53.22;;
47455;SDS011;33202;48.512;-2.780;2022-12-07T09:42:02;67.25;;;39.53;;
47455;SDS011;33202;48.512;-2.780;2022-12-07T09:44:29;55.97;;;31.52;;
47455;SDS011;33202;48.512;-2.780;2022-12-07T09:46:55;41.92;;;25.38;;
47455;SDS011;33202;48.512;-2.780;2022-12-07T09:49:23;34.65;;;20.15;;
47455;SDS011;33202;48.512;-2.780;2022-12-07T09:54:33;30.15;;;17.48;;
47455;SDS011;33202;48.512;-2.780;2022-12-07T09:57:01;24.50;;;15.30;;
47455;SDS011;33202;48.512;-2.780;2022-12-07T09:59:27;25.38;;;15.52;;
47455;SDS011;33202;48.512;-2.780;2022-12-07T10:01:53;25.20;;;13.85;;
47455;SDS011;33202;48.512;-2.780;2022-12-07T10:04:23;27.35;;;15.98;;
47455;SDS011;33202;48.512;-2.780;2022-12-07T10:06:50;26.70;;;15.68;;
47455;SDS011;33202;48.512;-2.780;2022-12-07T10:09:17;30.52;;;16.05;;
47455;SDS011;33202;48.512;-2.780;2022-12-07T10:12:03;26.95;;;15.27;;
47455;SDS011;33202;48.512;-2.780;2022-12-07T10:14:30;27.00;;;16.13;;
47455;SDS011;33202;48.512;-2.780;2022-12-07T10:16:57;26.60;;;16.30;;
47455;SDS011;33202;48.512;-2.780;2022-12-07T10:21:59;23.42;;;14.57;;
47455;SDS011;33202;48.512;-2.780;2022-12-07T10:24:25;23.23;;;14.82;;
47455;SDS011;33202;48.512;-2.780;2022-12-07T10:26:51;22.90;;;14.20;;
47455;SDS011;33202;48.512;-2.780;2022-12-07T10:29:21;27.95;;;16.13;;
47455;SDS011;33202;48.512;-2.780;2022-12-07T10:34:29;31.65;;;18.33;;
47455;SDS011;33202;48.512;-2.780;2022-12-07T10:39:50;29.30;;;16.23;;
47455;SDS011;33202;48.512;-2.780;2022-12-07T10:44:43;29.65;;;17.20;;
47455;SDS011;33202;48.512;-2.780;2022-12-07T10:47:25;26.40;;;15.93;;
47455;SDS011;33202;48.512;-2.780;2022-12-07T10:52:26;29.10;;;16.67;;
47455;SDS011;33202;48.512;-2.780;2022-12-07T11:10:50;27.92;;;15.68;;
47455;SDS011;33202;48.512;-2.780;2022-12-07T11:13:22;28.67;;;15.80;;
47455;SDS011;33202;48.512;-2.780;2022-12-07T11:20:59;27.40;;;15.45;;
47455;SDS011;33202;48.512;-2.780;2022-12-07T11:35:54;23.70;;;13.68;;
47455;SDS011;33202;48.512;-2.780;2022-12-07T11:38:43;26.17;;;15.50;;
47455;SDS011;33202;48.512;-2.780;2022-12-07T11:41:10;25.20;;;14.98;;
47455;SDS011;33202;48.512;-2.780;2022-12-07T11:43:50;28.60;;;15.45;;
47455;SDS011;33202;48.512;-2.780;2022-12-07T11:46:18;28.83;;;16.95;;
47455;SDS011;33202;48.512;-2.780;2022-12-07T11:51:11;30.92;;;16.42;;
47455;SDS011;33202;48.512;-2.780;2022-12-07T11:53:45;25.23;;;15.50;;
47455;SDS011;33202;48.512;-2.780;2022-12-07T11:56:13;23.23;;;13.27;;
47455;SDS011;33202;48.512;-2.780;2022-12-07T12:06:43;22.95;;;13.00;;
47455;SDS011;33202;48.512;-2.780;2022-12-07T12:09:17;23.95;;;12.93;;
47455;SDS011;33202;48.512;-2.780;2022-12-07T12:11:56;23.77;;;12.75;;
47455;SDS011;33202;48.512;-2.780;2022-12-07T12:19:54;21.08;;;11.50;;
47455;SDS011;33202;48.512;-2.780;2022-12-07T12:22:24;20.10;;;10.98;;
47455;SDS011;33202;48.512;-2.780;2022-12-07T12:24:52;23.23;;;13.90;;
47455;SDS011;33202;48.512;-2.780;2022-12-07T12:27:22;26.45;;;14.05;;
47455;SDS011;33202;48.512;-2.780;2022-12-07T12:29:52;23.88;;;13.40;;
47455;SDS011;33202;48.512;-2.780;2022-12-07T12:32:22;26.55;;;13.75;;
47455;SDS011;33202;48.512;-2.780;2022-12-07T12:37:52;23.30;;;13.82;;
47455;SDS011;33202;48.512;-2.780;2022-12-07T12:42:50;24.83;;;13.70;;
47455;SDS011;33202;48.512;-2.780;2022-12-07T12:45:23;28.23;;;15.27;;
47455;SDS011;33202;48.512;-2.780;2022-12-07T12:50:36;27.45;;;15.30;;
47455;SDS011;33202;48.512;-2.780;2022-12-07T12:53:19;24.90;;;15.27;;
47455;SDS011;33202;48.512;-2.780;2022-12-07T12:58:28;23.40;;;13.43;;
47455;SDS011;33202;48.512;-2.780;2022-12-07T13:03:39;26.98;;;15.85;;
47455;SDS011;33202;48.512;-2.780;2022-12-07T13:08:43;26.77;;;15.77;;
47455;SDS011;33202;48.512;-2.780;2022-12-07T13:11:16;27.33;;;15.88;;
47455;SDS011;33202;48.512;-2.780;2022-12-07T13:13:43;27.52;;;16.00;;
47455;SDS011;33202;48.512;-2.780;2022-12-07T13:18:36;24.08;;;13.55;;
47455;SDS011;33202;48.512;-2.780;2022-12-07T13:26:20;19.63;;;11.75;;
47455;SDS011;33202;48.512;-2.780;2022-12-07T13:28:48;18.65;;;11.85;;
47455;SDS011;33202;48.512;-2.780;2022-12-07T13:33:56;21.02;;;12.48;;
47455;SDS011;33202;48.512;-2.780;2022-12-07T13:36:27;21.88;;;13.00;;
47455;SDS011;33202;48.512;-2.780;2022-12-07T13:38:57;21.33;;;12.77;;
47455;SDS011;33202;48.512;-2.780;2022-12-07T13:41:28;20.40;;;12.35;;
47455;SDS011;33202;48.512;-2.780;2022-12-07T13:44:01;22.15;;;14.30;;
47455;SDS011;33202;48.512;-2.780;2022-12-07T13:46:35;20.98;;;13.15;;
47455;SDS011;33202;48.512;-2.780;2022-12-07T13:49:03;20.77;;;13.25;;
47455;SDS011;33202;48.512;-2.780;2022-12-07T13:51:41;20.65;;;12.65;;
47455;SDS011;33202;48.512;-2.780;2022-12-07T13:54:10;22.27;;;12.63;;
47455;SDS011;33202;48.512;-2.780;2022-12-07T13:56:37;24.67;;;13.98;;
47455;SDS011;33202;48.512;-2.780;2022-12-07T13:59:10;24.50;;;13.88;;
47455;SDS011;33202;48.512;-2.780;2022-12-07T14:01:38;21.77;;;13.80;;
47455;SDS011;33202;48.512;-2.780;2022-12-07T14:06:50;25.38;;;16.95;;
47455;SDS011;33202;48.512;-2.780;2022-12-07T14:09:18;23.65;;;14.80;;
47455;SDS011;33202;48.512;-2.780;2022-12-07T14:11:45;25.23;;;14.93;;
47455;SDS011;33202;48.512;-2.780;2022-12-07T14:14:13;24.58;;;15.20;;
47455;SDS011;33202;48.512;-2.780;2022-12-07T14:16:40;24.02;;;14.38;;
47455;SDS011;33202;48.512;-2.780;2022-12-07T14:19:37;23.25;;;14.15;;
47455;SDS011;33202;48.512;-2.780;2022-12-07T14:22:09;20.83;;;12.80;;
47455;SDS011;33202;48.512;-2.780;2022-12-07T14:24:41;20.40;;;12.98;;
47455;SDS011;33202;48.512;-2.780;2022-12-07T14:27:16;21.40;;;13.02;;
47455;SDS011;33202;48.512;-2.780;2022-12-07T14:29:42;19.80;;;11.90;;
47455;SDS011;33202;48.512;-2.780;2022-12-07T14:34:59;23.65;;;13.13;;
47455;SDS011;33202;48.512;-2.780;2022-12-07T14:37:26;18.17;;;12.23;;
47455;SDS011;33202;48.512;-2.780;2022-12-07T14:39:52;19.40;;;12.73;;
47455;SDS011;33202;48.512;-2.780;2022-12-07T14:42:18;21.80;;;14.30;;
47455;SDS011;33202;48.512;-2.780;2022-12-07T14:44:45;24.10;;;14.45;;
47455;SDS011;33202;48.512;-2.780;2022-12-07T14:47:11;21.20;;;13.82;;
47455;SDS011;33202;48.512;-2.780;2022-12-07T14:49:37;20.60;;;13.38;;
47455;SDS011;33202;48.512;-2.780;2022-12-07T14:52:04;24.02;;;13.43;;
47455;SDS011;33202;48.512;-2.780;2022-12-07T14:54:31;20.07;;;13.67;;
47455;SDS011;33202;48.512;-2.780;2022-12-07T14:56:57;21.10;;;13.97;;
47455;SDS011;33202;48.512;-2.780;2022-12-07T14:59:23;22.08;;;14.68;;
47455;SDS011;33202;48.512;-2.780;2022-12-07T15:01:50;19.92;;;12.35;;
47455;SDS011;33202;48.512;-2.780;2022-12-07T15:04:16;18.83;;;11.73;;
47455;SDS011;33202;48.512;-2.780;2022-12-07T15:06:48;16.42;;;11.00;;
47455;SDS011;33202;48.512;-2.780;2022-12-07T15:09:19;18.45;;;11.00;;
47455;SDS011;33202;48.512;-2.780;2022-12-07T15:11:45;16.67;;;11.00;;
47455;SDS011;33202;48.512;-2.780;2022-12-07T15:14:11;17.45;;;10.65;;
47455;SDS011;33202;48.512;-2.780;2022-12-07T15:16:38;16.48;;;10.90;;
47455;SDS011;33202;48.512;-2.780;2022-12-07T15:19:05;31.08;;;12.38;;
47455;SDS011;33202;48.512;-2.780;2022-12-07T15:21:31;18.90;;;13.77;;
47455;SDS011;33202;48.512;-2.780;2022-12-07T15:23:57;22.13;;;14.55;;
47455;SDS011;33202;48.512;-2.780;2022-12-07T15:26:23;26.02;;;16.42;;
47455;SDS011;33202;48.512;-2.780;2022-12-07T15:28:49;32.65;;;25.15;;
47455;SDS011;33202;48.512;-2.780;2022-12-07T15:31:16;39.70;;;31.00;;
47455;SDS011;33202;48.512;-2.780;2022-12-07T15:33:43;36.92;;;29.73;;
47455;SDS011;33202;48.512;-2.780;2022-12-07T15:36:15;40.08;;;28.80;;
47455;SDS011;33202;48.512;-2.780;2022-12-07T15:38:43;32.90;;;25.50;;
47455;SDS011;33202;48.512;-2.780;2022-12-07T15:41:09;31.70;;;22.35;;
47455;SDS011;33202;48.512;-2.780;2022-12-07T15:43:35;30.48;;;22.35;;
47455;SDS011;33202;48.512;-2.780;2022-12-07T15:46:20;26.85;;;19.13;;
47455;SDS011;33202;48.512;-2.780;2022-12-07T15:48:46;30.27;;;21.00;;
47455;SDS011;33202;48.512;-2.780;2022-12-07T15:51:12;26.23;;;17.90;;
47455;SDS011;33202;48.512;-2.780;2022-12-07T15:53:38;24.63;;;17.92;;
47455;SDS011;33202;48.512;-2.780;2022-12-07T15:56:08;28.75;;;19.25;;
47455;SDS011;33202;48.512;-2.780;2022-12-07T15:58:35;32.25;;;20.50;;
47455;SDS011;33202;48.512;-2.780;2022-12-07T16:01:09;31.33;;;19.88;;
47455;SDS011;33202;48.512;-2.780;2022-12-07T16:03:35;24.83;;;17.50;;
47455;SDS011;33202;48.512;-2.780;2022-12-07T16:06:01;23.70;;;15.77;;
47455;SDS011;33202;48.512;-2.780;2022-12-07T16:08:27;21.85;;;15.18;;
47455;SDS011;33202;48.512;-2.780;2022-12-07T16:10:53;22.67;;;14.52;;
47455;SDS011;33202;48.512;-2.780;2022-12-07T16:13:19;22.27;;;15.45;;
47455;SDS011;33202;48.512;-2.780;2022-12-07T16:15:46;25.13;;;15.77;;
47455;SDS011;33202;48.512;-2.780;2022-12-07T16:18:12;26.52;;;17.88;;
47455;SDS011;33202;48.512;-2.780;2022-12-07T16:20:38;27.13;;;18.08;;
47455;SDS011;33202;48.512;-2.780;2022-12-07T16:23:04;27.55;;;17.55;;
47455;SDS011;33202;48.512;-2.780;2022-12-07T16:25:30;31.02;;;19.02;;